Time;durP1;ratioP1;P1;durP2;ratioP2;P2;SDS_P1;SDS_P2;PMS_P1;PMS_P2;Temp;Humidity;BMP_temperature;BMP_pressure;BME280_temperature;BME280_humidity;BME280_pressure;Samples;Min_cycle;Max_cycle;Signal;HPM_P1;HPM_P2
2022/07/05 00:02:00;;;;;;;7.38;4.65;;;;;;;11.65;100.00;163610.88;4973865;28;20097;-60
2022/07/05 00:04:25;;;;;;;6.95;5.43;;;;;;;11.55;100.00;163583.84;4991884;28;20019;-60
2022/07/05 00:09:34;;;;;;;4.45;4.05;;;;;;;11.27;100.00;163510.94;4970850;28;20573;-60
2022/07/05 00:12:00;;;;;;;4.50;4.10;;;;;;;11.37;100.00;163537.91;4974032;28;20034;-61
2022/07/05 00:14:25;;;;;;;7.50;4.03;;;;;;;11.34;100.00;163529.84;4991825;28;20034;-61
2022/07/05 00:16:51;;;;;;;4.50;4.00;;;;;;;11.34;100.00;163529.84;4989942;28;20041;-60
2022/07/05 00:19:16;;;;;;;9.77;5.50;;;;;;;11.32;100.00;163524.41;4991552;28;20037;-60
2022/07/05 00:21:41;;;;;;;6.22;4.95;;;;;;;11.35;100.00;163532.53;4990292;28;20042;-61
2022/07/05 00:24:07;;;;;;;5.88;5.38;;;;;;;11.34;100.00;163529.84;4971928;28;20037;-61
2022/07/05 00:26:32;;;;;;;4.70;4.07;;;;;;;11.32;100.00;163524.41;4971035;28;20055;-61
2022/07/05 00:28:57;;;;;;;5.13;4.47;;;;;;;11.29;100.00;163514.97;4971867;28;20097;-61
2022/07/05 00:31:23;;;;;;;5.30;4.90;;;;;;;11.25;100.00;163505.50;4970621;28;20042;-61
2022/07/05 00:33:48;;;;;;;6.13;3.63;;;;;;;11.18;100.00;163486.59;4988527;28;20022;-60
2022/07/05 00:36:13;;;;;;;4.88;3.85;;;;;;;11.09;100.00;163465.00;4990108;28;20050;-60
2022/07/05 00:38:39;;;;;;;4.70;4.15;;;;;;;11.05;100.00;163452.84;4991340;28;20025;-60
2022/07/05 00:41:04;;;;;;;5.65;4.95;;;;;;;11.04;100.00;163451.50;4990033;28;20110;-60
2022/07/05 00:43:30;;;;;;;5.05;4.47;;;;;;;11.03;100.00;163447.44;4977368;28;20083;-61
2022/07/05 00:45:55;;;;;;;7.05;5.10;;;;;;;11.01;100.00;163443.38;4970440;28;20057;-62
2022/07/05 00:48:20;;;;;;;6.38;5.07;;;;;;;10.97;100.00;163431.22;4971602;28;20035;-62
2022/07/05 00:50:46;;;;;;;4.10;3.80;;;;;;;10.93;100.00;163421.78;4970770;28;20039;-62
2022/07/05 00:53:12;;;;;;;5.60;4.68;;;;;;;10.83;100.00;163396.13;4982800;28;20034;-60
2022/07/05 00:55:37;;;;;;;5.32;4.43;;;;;;;10.76;100.00;163378.56;4988461;28;20066;-60
2022/07/05 00:58:02;;;;;;;7.90;4.63;;;;;;;10.72;100.00;163367.78;4991198;28;20018;-60
2022/07/05 01:00:28;;;;;;;11.40;6.82;;;;;;;10.70;100.00;163362.38;4988339;28;20050;-60
2022/07/05 01:02:53;;;;;;;5.82;5.13;;;;;;;10.68;100.00;163357.03;4981430;28;20041;-60
2022/07/05 01:05:19;;;;;;;6.20;5.25;;;;;;;10.62;100.00;163340.78;4970242;28;20121;-60
2022/07/05 01:07:45;;;;;;;5.45;4.88;;;;;;;10.55;100.00;163321.88;4975193;28;20034;-60
2022/07/05 01:10:10;;;;;;;4.97;4.57;;;;;;;10.48;100.00;163305.69;4973762;28;20126;-60
2022/07/05 01:12:40;;;;;;;5.68;5.18;;;;;;;10.43;100.00;163292.22;4981803;28;20496;-60
2022/07/05 01:15:07;;;;;;;6.07;5.53;;;;;;;10.22;100.00;163235.47;4993285;28;20101;-60
2022/07/05 01:17:36;;;;;;;5.28;4.68;;;;;;;10.36;100.00;163273.25;4994480;28;20030;-60
2022/07/05 01:20:03;;;;;;;6.18;5.57;;;;;;;10.34;100.00;163266.53;4993324;28;20447;-60
2022/07/05 01:22:49;;;;;;;8.75;5.70;;;;;;;10.32;100.00;163262.44;4989230;28;20483;-60
2022/07/05 01:25:14;;;;;;;6.88;5.35;;;;;;;10.28;100.00;163251.66;4992642;28;20050;-61
2022/07/05 01:27:40;;;;;;;6.63;6.03;;;;;;;10.27;100.00;163248.97;4985692;28;20494;-61
2022/07/05 01:30:06;;;;;;;7.03;6.40;;;;;;;10.23;100.00;163238.19;4982510;28;20038;-61
2022/07/05 01:32:31;;;;;;;6.63;5.40;;;;;;;10.18;100.00;163224.66;4983741;28;20609;-61
2022/07/05 01:34:58;;;;;;;3.78;3.47;;;;;;;10.09;100.00;163203.06;4983627;28;20420;-61
2022/07/05 01:37:23;;;;;;;4.53;4.20;;;;;;;10.04;100.00;163189.59;4984258;28;20027;-61
2022/07/05 01:39:48;;;;;;;4.90;4.50;;;;;;;9.99;100.00;163177.44;4981947;28;20100;-61
2022/07/05 01:42:14;;;;;;;5.22;4.75;;;;;;;10.00;100.00;163178.81;4984946;28;20109;-63
2022/07/05 01:44:39;;;;;;;8.05;5.43;;;;;;;10.00;100.00;163178.81;4982320;28;20557;-61
2022/07/05 01:47:06;;;;;;;5.40;4.63;;;;;;;9.96;100.00;163168.00;4983376;28;20429;-64
2022/07/05 01:49:45;;;;;;;9.25;5.88;;;;;;;9.92;100.00;163157.22;4983645;28;20109;-58
2022/07/05 01:52:12;;;;;;;6.43;5.32;;;;;;;9.87;100.00;163143.69;4984534;28;20046;-62
2022/07/05 01:54:38;;;;;;;6.55;5.50;;;;;;;9.82;100.00;163132.94;4979021;28;20117;-62
2022/07/05 01:57:05;;;;;;;5.63;5.13;;;;;;;9.78;100.00;163122.16;4983460;28;20026;-62
2022/07/05 01:59:33;;;;;;;7.25;5.95;;;;;;;9.74;100.00;163110.00;4980728;28;20058;-62
2022/07/05 02:01:59;;;;;;;6.87;6.03;;;;;;;9.60;100.00;163074.94;4983725;28;20023;-62
2022/07/05 02:04:24;;;;;;;6.43;5.10;;;;;;;9.70;100.00;163100.56;4983640;28;20027;-64
2022/07/05 02:06:50;;;;;;;5.10;3.55;;;;;;;9.67;100.00;163093.81;4983325;28;20038;-61
2022/07/05 02:09:15;;;;;;;4.68;4.15;;;;;;;9.65;100.00;163087.03;4982163;28;20038;-61
2022/07/05 02:11:41;;;;;;;6.28;5.63;;;;;;;9.64;100.00;163084.38;4981422;28;20037;-61
2022/07/05 02:14:06;;;;;;;6.93;6.25;;;;;;;9.60;100.00;163073.56;4983925;28;20031;-62
2022/07/05 02:16:31;;;;;;;9.55;5.47;;;;;;;9.57;100.00;163065.50;4980879;28;20031;-62
2022/07/05 02:18:57;;;;;;;7.60;5.43;;;;;;;9.55;100.00;163060.09;4984137;28;20085;-62
2022/07/05 02:21:22;;;;;;;25.38;6.13;;;;;;;9.54;100.00;163058.72;4982048;28;20035;-61
2022/07/05 02:23:48;;;;;;;8.32;5.03;;;;;;;9.47;100.00;163041.22;4982689;28;20037;-62
2022/07/05 02:26:13;;;;;;;57.97;6.35;;;;;;;9.41;100.00;163025.03;4980085;28;20061;-62
2022/07/05 02:28:39;;;;;;;4.22;3.80;;;;;;;9.33;100.00;163003.44;4974166;28;20055;-62
2022/07/05 02:31:04;;;;;;;5.18;4.78;;;;;;;9.27;100.00;162987.28;4972226;28;20134;-62
2022/07/05 02:33:30;;;;;;;5.75;5.22;;;;;;;9.22;100.00;162975.13;4974310;28;20030;-63
2022/07/05 02:35:55;;;;;;;7.55;5.93;;;;;;;9.20;100.00;162971.03;4972536;28;20047;-63
2022/07/05 02:38:21;;;;;;;7.72;6.95;;;;;;;9.24;100.00;162980.47;4973540;28;20019;-63
2022/07/05 02:40:46;;;;;;;8.07;7.32;;;;;;;9.24;100.00;162980.47;4972605;28;20387;-63
2022/07/05 02:43:11;;;;;;;10.25;6.90;;;;;;;9.20;100.00;162971.03;4984401;28;20520;-63
2022/07/05 02:45:37;;;;;;;22.08;5.03;;;;;;;9.17;100.00;162961.59;4991623;28;20050;-62
2022/07/05 02:48:02;;;;;;;9.90;6.07;;;;;;;9.12;100.00;162949.47;4993013;28;20045;-60
2022/07/05 02:50:28;;;;;;;7.70;5.22;;;;;;;9.08;100.00;162938.69;4991921;28;20038;-60
2022/07/05 02:52:53;;;;;;;8.18;4.70;;;;;;;9.02;100.00;162922.53;4984592;28;20472;-60
2022/07/05 02:55:19;;;;;;;40.10;4.78;;;;;;;8.96;100.00;162907.69;4972201;28;20042;-60
2022/07/05 02:57:44;;;;;;;17.48;4.68;;;;;;;8.92;100.00;162895.53;4973450;28;20015;-60
2022/07/05 03:00:10;;;;;;;7.55;5.57;;;;;;;8.87;100.00;162884.78;4971633;28;20065;-60
2022/07/05 03:02:35;;;;;;;8.55;7.50;;;;;;;8.87;100.00;162883.38;4979555;28;20025;-60
2022/07/05 03:05:01;;;;;;;6.45;5.93;;;;;;;8.85;100.00;162879.38;4991264;28;20086;-60
2022/07/05 03:07:26;;;;;;;7.30;5.57;;;;;;;8.86;100.00;162882.06;4992649;28;20039;-60
2022/07/05 03:09:52;;;;;;;8.95;6.68;;;;;;;8.83;100.00;162873.94;4990120;28;20038;-61
2022/07/05 03:12:17;;;;;;;8.18;5.90;;;;;;;8.80;100.00;162865.91;4989404;28;20037;-60
2022/07/05 03:14:42;;;;;;;8.73;6.60;;;;;;;8.76;100.00;162853.75;4971721;28;20029;-60
2022/07/05 03:17:08;;;;;;;12.57;7.35;;;;;;;8.73;100.00;162848.34;4972925;28;20501;-60
2022/07/05 03:19:33;;;;;;;23.45;10.85;;;;;;;8.74;100.00;162849.72;4971970;28;20144;-60
2022/07/05 03:21:58;;;;;;;9.65;8.75;;;;;;;8.75;100.00;162852.38;4972609;28;20128;-60
2022/07/05 03:24:24;;;;;;;11.20;7.70;;;;;;;8.77;100.00;162856.47;4992049;28;20042;-60
2022/07/05 03:26:49;;;;;;;8.60;6.70;;;;;;;8.78;100.00;162860.50;4991005;28;20042;-60
2022/07/05 03:29:14;;;;;;;8.48;7.78;;;;;;;8.80;100.00;162865.91;4991321;28;20060;-60
2022/07/05 03:31:40;;;;;;;12.20;9.65;;;;;;;8.84;100.00;162876.66;4991188;28;20042;-60
2022/07/05 03:34:05;;;;;;;17.88;8.27;;;;;;;8.84;100.00;162876.66;4974820;28;20509;-60
2022/07/05 03:36:31;;;;;;;7.78;7.00;;;;;;;8.85;100.00;162879.38;4971319;28;20054;-60
2022/07/05 03:38:56;;;;;;;11.30;7.50;;;;;;;8.83;100.00;162873.94;4972816;28;20032;-61
2022/07/05 03:41:21;;;;;;;8.48;7.63;;;;;;;8.82;100.00;162871.31;4971527;28;20069;-61
2022/07/05 03:43:47;;;;;;;10.07;7.75;;;;;;;8.80;100.00;162864.53;4985710;28;20042;-61
2022/07/05 03:46:12;;;;;;;10.43;9.35;;;;;;;8.75;100.00;162852.38;4990624;28;20050;-61
2022/07/05 03:48:38;;;;;;;10.07;9.07;;;;;;;8.73;100.00;162848.34;4992163;28;20023;-61
2022/07/05 03:51:03;;;;;;;10.68;9.27;;;;;;;8.69;100.00;162837.59;4990276;28;20045;-61
2022/07/05 03:53:28;;;;;;;10.75;9.80;;;;;;;8.70;100.00;162838.91;4990285;28;20030;-61
2022/07/05 03:55:54;;;;;;;10.40;9.10;;;;;;;8.74;100.00;162849.72;4990670;28;20046;-62
2022/07/05 03:58:19;;;;;;;9.07;8.27;;;;;;;8.72;100.00;162844.31;4991658;28;20049;-63
2022/07/05 04:00:45;;;;;;;9.70;8.45;;;;;;;8.71;100.00;162841.63;4990407;28;20591;-62
2022/07/05 04:03:11;;;;;;;12.00;10.80;;;;;;;8.72;100.00;162845.66;4990016;28;20031;-62
2022/07/05 04:05:36;;;;;;;12.57;11.15;;;;;;;8.77;100.00;162857.78;4990499;28;20033;-62
2022/07/05 04:08:01;;;;;;;12.75;10.57;;;;;;;8.83;100.00;162873.94;4991316;28;20026;-62
2022/07/05 04:10:27;;;;;;;12.68;11.38;;;;;;;8.86;100.00;162882.06;4978877;28;20030;-64
2022/07/05 04:12:52;;;;;;;10.05;9.23;;;;;;;8.91;100.00;162892.81;4972629;28;20371;-62
2022/07/05 04:15:18;;;;;;;13.75;10.98;;;;;;;8.94;100.00;162902.28;4981003;28;20054;-62
2022/07/05 04:17:48;;;;;;;13.27;10.10;;;;;;;8.98;100.00;162911.72;4970863;28;20030;-62
2022/07/05 04:20:13;;;;;;;11.90;10.80;;;;;;;9.01;100.00;162921.16;4978217;28;20026;-62
2022/07/05 04:22:38;;;;;;;16.25;12.65;;;;;;;9.05;100.00;162930.59;4980032;28;20049;-62
2022/07/05 04:25:16;;;;;;;13.73;11.90;;;;;;;9.12;100.00;162949.47;4991332;28;20378;-62
2022/07/05 04:27:49;;;;;;;9.10;8.13;;;;;;;9.21;100.00;162973.75;4989140;28;20078;-62
2022/07/05 04:30:16;;;;;;;13.80;12.50;;;;;;;9.33;100.00;163003.44;4991095;28;20030;-62
2022/07/05 04:32:42;;;;;;;16.80;13.50;;;;;;;9.27;100.00;162987.28;4984714;28;20034;-62
2022/07/05 04:35:08;;;;;;;12.60;11.30;;;;;;;9.59;100.00;163070.84;4972090;28;20133;-62
2022/07/05 04:37:34;;;;;;;15.40;12.75;;;;;;;9.73;100.00;163108.63;4976779;28;20104;-62
2022/07/05 04:39:59;;;;;;;16.20;14.68;;;;;;;9.88;100.00;163146.41;4986854;28;20498;-62
2022/07/05 04:42:25;;;;;;;15.20;13.77;;;;;;;9.95;100.00;163165.28;4979308;28;20038;-61
2022/07/05 04:44:50;;;;;;;17.42;14.48;;;;;;;10.26;100.00;163246.25;4985830;28;20026;-62
2022/07/05 04:47:15;;;;;;;15.23;13.82;;;;;;;10.43;100.00;163290.84;4982788;28;20042;-62
2022/07/05 04:49:41;;;;;;;15.88;13.63;;;;;;;-146.58;100.00;69501.63;4985354;28;20025;-63
2022/07/05 04:52:06;;;;;;;15.40;13.93;;;;;;;-146.58;100.00;69501.63;4983682;28;20130;-62
2022/07/05 04:54:32;;;;;;;15.13;13.82;;;;;;;10.97;100.00;162412.91;4984145;28;20023;-61
2022/07/05 04:56:57;;;;;;;14.98;13.57;;;;;;;11.18;100.00;160840.19;4984035;28;20042;-62
2022/07/05 04:59:22;;;;;;;17.38;15.75;;;;;;;11.41;100.00;159272.25;4985012;28;20027;-61
2022/07/05 05:01:48;;;;;;;16.95;15.25;;;;;;;11.61;100.00;158294.16;4982824;28;20049;-61
2022/07/05 05:04:13;;;;;;;17.40;15.55;;;;;;;11.77;100.00;158508.75;4991802;28;20022;-60
2022/07/05 05:06:38;;;;;;;17.38;14.38;;;;;;;11.93;100.00;159862.75;4992902;28;20050;-60
2022/07/05 05:09:04;;;;;;;23.55;15.50;;;;;;;12.10;100.00;160646.44;4995017;28;20022;-59
2022/07/05 05:11:29;;;;;;;13.52;12.23;;;;;;;12.28;100.00;162803.66;4993845;28;20461;-60
2022/07/05 05:13:54;;;;;;;15.32;13.93;;;;;;;12.41;100.00;163809.50;4994623;28;20030;-60
2022/07/05 05:16:20;;;;;;;14.52;12.85;;;;;;;12.48;100.00;163828.41;4993406;28;20617;-60
2022/07/05 05:18:45;;;;;;;14.30;12.65;;;;;;;12.57;100.00;163851.38;4994920;28;20035;-59
2022/07/05 05:21:11;;;;;;;15.32;13.75;;;;;;;12.75;100.00;163897.34;4992861;28;20046;-60
2022/07/05 05:23:37;;;;;;;13.15;11.88;;;;;;;12.90;100.00;163937.91;4994890;28;20158;-60
2022/07/05 05:26:02;;;;;;;14.57;13.07;;;;;;;13.04;100.00;163974.38;4993148;28;20112;-60
2022/07/05 05:28:28;;;;;;;12.43;11.13;;;;;;;13.17;100.00;164009.56;4994296;28;20129;-60
2022/07/05 05:30:53;;;;;;;12.95;11.75;;;;;;;13.32;100.00;164048.75;4993325;28;20065;-59
2022/07/05 05:33:18;;;;;;;12.63;11.43;;;;;;;13.47;100.00;164086.66;4994591;28;20030;-60
2022/07/05 05:35:44;;;;;;;12.82;11.57;;;;;;;13.64;100.00;164132.63;4992680;28;20034;-60
2022/07/05 05:38:09;;;;;;;16.80;12.27;;;;;;;13.82;100.00;164177.25;4994372;28;20593;-57
2022/07/05 05:40:37;;;;;;;10.73;9.73;;;;;;;13.90;100.00;164200.25;4993192;28;20022;-57
2022/07/05 05:43:03;;;;;;;10.05;9.13;;;;;;;13.96;100.00;164216.47;4993900;28;20037;-56
2022/07/05 05:45:28;;;;;;;16.17;9.68;;;;;;;14.04;100.00;164236.78;4992451;28;20026;-57
2022/07/05 05:47:57;;;;;;;12.75;9.85;;;;;;;14.21;100.00;164280.06;4994462;28;20049;-57
2022/07/05 05:50:25;;;;;;;14.52;10.43;;;;;;;14.33;100.00;164311.19;4992527;28;20389;-56
2022/07/05 05:52:50;;;;;;;15.18;11.32;;;;;;;14.49;100.00;164353.13;4993761;28;20492;-56
2022/07/05 05:55:16;;;;;;;10.95;9.63;;;;;;;14.66;100.00;164399.19;4994056;28;20030;-56
2022/07/05 05:57:42;;;;;;;12.85;10.50;;;;;;;14.81;100.00;164438.41;4992402;28;20070;-56
2022/07/05 06:00:09;;;;;;;29.58;9.85;;;;;;;14.93;100.00;164468.19;4994080;28;20053;-57
2022/07/05 06:02:34;;;;;;;9.43;7.50;;;;;;;15.11;100.00;164516.91;4992662;28;20049;-57
2022/07/05 06:05:00;;;;;;;8.43;7.72;;;;;;;15.33;100.00;164573.75;4993531;28;20031;-57
2022/07/05 06:07:25;;;;;;;8.40;7.55;;;;;;;15.44;100.00;164603.56;4992723;28;20053;-57
2022/07/05 06:09:51;;;;;;;14.02;8.52;;;;;;;15.67;100.00;164664.47;4993952;28;20034;-56
2022/07/05 06:12:16;;;;;;;9.98;8.55;;;;;;;15.89;100.00;164720.03;4990850;28;20194;-56
2022/07/05 06:14:41;;;;;;;7.97;6.68;;;;;;;16.01;100.00;164752.53;4993616;28;20033;-57
2022/07/05 06:17:07;;;;;;;10.98;7.32;;;;;;;16.12;100.00;164782.28;4992121;28;20050;-56
2022/07/05 06:19:32;;;;;;;10.00;7.68;;;;;;;16.26;100.00;164817.53;4993323;28;20035;-57
2022/07/05 06:21:57;;;;;;;10.55;7.45;;;;;;;16.38;100.00;164850.03;4991532;28;20104;-57
2022/07/05 06:24:23;;;;;;;7.60;6.63;;;;;;;16.48;100.00;164875.75;4990873;28;20030;-56
2022/07/05 06:26:48;;;;;;;8.10;6.53;;;;;;;16.58;100.00;164902.88;4990586;28;20104;-56
2022/07/05 06:29:13;;;;;;;7.22;6.53;;;;;;;16.57;100.00;164900.16;4993563;28;20023;-57
2022/07/05 06:31:39;;;;;;;7.28;6.18;;;;;;;16.75;100.00;164947.56;4992306;28;20045;-57
2022/07/05 06:34:04;;;;;;;7.05;5.00;;;;;;;17.17;100.00;165055.97;4992685;28;20037;-57
2022/07/05 06:36:29;;;;;;;9.40;4.82;;;;;;;17.30;100.00;165091.25;4992307;28;20041;-56
2022/07/05 06:38:55;;;;;;;8.40;4.50;;;;;;;17.41;100.00;165121.03;4993386;28;20026;-57
2022/07/05 06:41:20;;;;;;;6.55;4.70;;;;;;;17.76;100.00;165213.19;4991453;28;20043;-56
2022/07/05 06:43:45;;;;;;;6.15;5.00;;;;;;;18.17;100.00;165319.00;4993420;28;20425;-57
2022/07/05 06:46:11;;;;;;;7.03;5.32;;;;;;;18.32;100.00;165359.69;4977685;28;20054;-57
2022/07/05 06:48:36;;;;;;;5.97;4.50;;;;;;;18.80;100.00;165484.47;4973567;28;20023;-57
2022/07/05 06:51:02;;;;;;;6.95;5.07;;;;;;;19.12;100.00;165569.97;4980937;28;20556;-56
2022/07/05 06:53:27;;;;;;;6.18;4.47;;;;;;;19.40;100.00;165641.88;4992722;28;20080;-57
2022/07/05 06:55:52;;;;;;;5.38;4.35;;;;;;;19.55;100.00;165682.53;4991065;28;20038;-57
2022/07/05 06:58:18;;;;;;;4.90;4.20;;;;;;;19.78;100.00;165742.25;4992265;28;20030;-56
2022/07/05 07:00:44;;;;;;;4.93;4.53;;;;;;;19.97;100.00;165793.88;4991578;28;20048;-57
2022/07/05 07:03:09;;;;;;;8.82;4.70;;;;;;;20.03;100.00;165807.44;4992172;28;20030;-56
2022/07/05 07:05:35;;;;;;;16.00;7.05;;;;;;;19.60;100.00;165696.13;4990425;28;20047;-57
2022/07/05 07:10:44;;;;;;;11.48;4.50;;;;;;;19.83;100.00;165755.84;4991254;28;20059;-57
2022/07/05 07:13:10;;;;;;;7.75;3.92;;;;;;;19.61;100.00;165697.47;4991952;28;20402;-57
2022/07/05 07:15:35;;;;;;;5.70;4.45;;;;;;;19.73;100.00;165728.69;4991209;28;20445;-57
2022/07/05 07:18:01;;;;;;;10.05;4.78;;;;;;;19.93;100.00;165783.00;4992355;28;20462;-57
2022/07/05 07:20:26;;;;;;;7.80;3.53;;;;;;;19.80;100.00;165747.69;4990920;28;20038;-57
2022/07/05 07:22:52;;;;;;;8.23;4.55;;;;;;;19.91;100.00;165777.63;4992083;28;20461;-58
2022/07/05 07:25:20;;;;;;;7.15;5.18;;;;;;;19.93;100.00;165781.66;4990785;28;20053;-57
2022/07/05 07:27:49;;;;;;;6.60;3.88;;;;;;;20.03;100.00;165807.44;4992167;28;20498;-57
2022/07/05 07:30:16;;;;;;;5.38;3.63;;;;;;;20.26;100.00;165869.88;4983953;28;20094;-57
2022/07/05 07:32:42;;;;;;;4.33;2.77;;;;;;;20.09;100.00;165825.09;4984666;28;20041;-57
2022/07/05 07:35:08;;;;;;;13.15;3.95;;;;;;;20.05;100.00;165814.22;4973177;28;20038;-57
2022/07/05 07:37:34;;;;;;;5.10;3.05;;;;;;;20.37;100.00;165898.38;4992311;28;20034;-57
2022/07/05 07:40:01;;;;;;;5.22;2.70;;;;;;;20.22;100.00;165859.00;4989032;28;20088;-57
2022/07/05 07:42:27;;;;;;;3.17;2.13;;;;;;;20.39;100.00;165902.44;4991997;28;20541;-57
2022/07/05 07:44:52;;;;;;;3.92;2.97;;;;;;;20.17;100.00;165844.09;4988941;28;20081;-57
2022/07/05 07:47:18;;;;;;;3.58;2.25;;;;;;;20.25;100.00;165867.16;4991775;28;20397;-57
2022/07/05 07:49:43;;;;;;;6.25;2.45;;;;;;;20.28;100.00;165875.34;4990532;28;20029;-57
2022/07/05 07:52:08;;;;;;;4.85;2.05;;;;;;;20.43;100.00;165914.66;4990250;28;20018;-56
2022/07/05 07:54:34;;;;;;;4.75;2.40;;;;;;;20.71;100.00;165987.97;4982061;28;20400;-56
2022/07/05 07:57:01;;;;;;;4.00;2.35;;;;;;;20.87;100.00;166030.13;4972089;28;20014;-57
2022/07/05 07:59:27;;;;;;;1.90;1.60;;;;;;;21.04;100.00;166073.53;4973228;28;20107;-57
2022/07/05 08:01:52;;;;;;;3.90;2.05;;;;;;;21.00;100.00;166062.72;4971048;28;20034;-57
2022/07/05 08:04:17;;;;;;;8.05;3.17;;;;;;;21.21;100.00;166118.41;4972016;28;20477;-56
2022/07/05 08:06:44;;;;;;;6.30;2.15;;;;;;;21.25;100.00;166129.25;4971161;28;20035;-57
2022/07/05 08:09:09;;;;;;;4.65;2.83;;;;;;;21.08;100.00;166084.44;4972423;28;20078;-57
2022/07/05 08:11:34;;;;;;;2.13;1.95;;;;;;;21.32;100.00;166146.91;4970571;28;20034;-57
2022/07/05 08:14:00;;;;;;;6.50;2.15;;;;;;;21.29;100.00;166138.75;4972380;28;20058;-57
2022/07/05 08:16:25;;;;;;;2.75;2.45;;;;;;;21.56;100.00;166212.06;4970860;28;20639;-57
2022/07/05 08:21:37;;;;;;;3.75;2.55;;;;;;;22.12;100.00;166357.47;4971057;28;20041;-57
2022/07/05 08:24:07;;;;;;;3.50;3.10;;;;;;;22.31;100.00;166407.75;4972279;28;20031;-57
2022/07/05 08:26:33;;;;;;;20.13;4.30;;;;;;;22.73;100.00;166519.25;4970551;28;20570;-57
2022/07/05 08:29:01;;;;;;;29.13;4.00;;;;;;;22.78;100.00;166532.84;4971941;28;20515;-57
2022/07/05 08:31:28;;;;;;;5.93;2.40;;;;;;;22.86;100.00;166551.88;4970966;28;20038;-57
2022/07/05 08:33:53;;;;;;;5.85;3.35;;;;;;;22.96;100.00;166580.41;4971967;28;20486;-57
2022/07/05 08:36:18;;;;;;;3.60;1.70;;;;;;;23.05;100.00;166603.50;4970744;28;20076;-57
2022/07/05 08:38:44;;;;;;;3.28;1.90;;;;;;;22.81;100.00;166539.63;4972180;28;20537;-57
2022/07/05 08:41:11;;;;;;;5.20;1.70;;;;;;;22.43;100.00;166440.44;4972013;28;20121;-57
2022/07/05 08:43:45;;;;;;;3.10;2.05;;;;;;;22.34;100.00;166415.91;4975726;28;20035;-57
2022/07/05 08:46:11;;;;;;;2.45;1.60;;;;;;;22.33;100.00;166414.59;4970416;28;20055;-57
2022/07/05 08:48:43;;;;;;;1.88;1.60;;;;;;;22.19;100.00;166377.88;4986427;28;20038;-57
2022/07/05 08:51:26;;;;;;;6.25;2.03;;;;;;;22.26;100.00;166395.56;4989725;28;20089;-57
2022/07/05 08:53:53;;;;;;;2.38;1.70;;;;;;;22.35;100.00;166419.97;4990076;28;20390;-57
2022/07/05 08:56:19;;;;;;;4.07;1.95;;;;;;;22.49;100.00;166455.34;4989178;28;20035;-57
2022/07/05 08:58:45;;;;;;;4.25;2.33;;;;;;;22.48;100.00;166454.00;4991301;28;20030;-57
2022/07/05 09:01:12;;;;;;;2.35;1.77;;;;;;;22.60;100.00;166483.94;4989813;28;20081;-57
2022/07/05 09:03:51;;;;;;;3.90;2.38;;;;;;;23.66;100.00;166762.63;4991021;28;20026;-58
2022/07/05 09:06:21;;;;;;;5.72;2.33;;;;;;;23.95;100.00;166838.81;4989639;28;20074;-57
2022/07/05 09:08:51;;;;;;;3.50;2.38;;;;;;;23.04;100.00;166600.81;4991363;28;20064;-57
2022/07/05 09:11:21;;;;;;;4.82;2.22;;;;;;;22.50;100.00;166459.47;4989430;28;20041;-57
2022/07/05 09:13:51;;;;;;;1.88;1.60;;;;;;;21.63;100.00;166228.47;4991341;28;20501;-57
2022/07/05 09:16:16;;;;;;;4.57;2.05;;;;;;;21.01;100.00;166066.75;4989552;28;20038;-57
2022/07/05 09:18:54;;;;;;;3.42;2.25;;;;;;;21.09;100.00;166087.16;4990901;28;20032;-56
2022/07/05 09:21:19;;;;;;;2.83;1.98;;;;;;;20.92;100.00;166043.69;4989673;28;20046;-57
2022/07/05 09:23:54;;;;;;;6.57;1.73;;;;;;;21.15;100.00;166103.44;4991124;28;20105;-57
2022/07/05 09:26:19;;;;;;;4.05;2.08;;;;;;;20.96;100.00;166051.88;4989146;28;20072;-57
2022/07/05 09:28:55;;;;;;;4.57;1.65;;;;;;;20.89;100.00;166035.53;4994221;28;20049;-57
2022/07/05 09:31:29;;;;;;;5.65;3.50;;;;;;;20.91;100.00;166040.97;4993011;28;20065;-58
2022/07/05 09:34:03;;;;;;;5.93;2.17;;;;;;;21.20;100.00;166117.00;4994772;28;20101;-58
2022/07/05 09:36:28;;;;;;;3.50;1.90;;;;;;;21.55;100.00;166209.41;4993358;28;20473;-57
2022/07/05 09:38:53;;;;;;;1.63;1.52;;;;;;;21.51;100.00;166198.50;4994169;28;20022;-56
2022/07/05 09:41:19;;;;;;;5.65;2.00;;;;;;;21.13;100.00;166098.00;4992995;28;20042;-57
2022/07/05 09:43:44;;;;;;;4.88;1.60;;;;;;;20.99;100.00;166061.38;4994663;28;20015;-57
2022/07/05 09:46:09;;;;;;;4.63;1.63;;;;;;;20.91;100.00;166040.97;4992620;28;20050;-57
2022/07/05 09:48:35;;;;;;;5.28;1.60;;;;;;;20.68;100.00;165978.47;4994412;28;20089;-57
2022/07/05 09:51:09;;;;;;;2.95;1.63;;;;;;;20.75;100.00;165997.53;4992608;28;20043;-58
2022/07/05 09:53:48;;;;;;;1.40;1.17;;;;;;;20.54;100.00;165943.19;4994184;28;20457;-57
2022/07/05 09:56:14;;;;;;;123.05;9.60;;;;;;;20.49;100.00;165929.63;4992681;28;20046;-57
2022/07/05 09:58:40;;;;;;;48.75;4.90;;;;;;;20.43;100.00;165913.34;4994161;28;20543;-57
2022/07/05 10:01:31;;;;;;;6.97;1.70;;;;;;;20.31;100.00;165880.72;4992308;28;20039;-57
2022/07/05 10:04:00;;;;;;;1.58;1.17;;;;;;;20.33;100.00;165886.16;4991781;28;20121;-57
2022/07/05 10:06:26;;;;;;;5.85;1.70;;;;;;;20.25;100.00;165865.81;4977451;28;20047;-57
2022/07/05 10:08:55;;;;;;;9.77;2.53;;;;;;;20.44;100.00;165917.38;4974347;28;20423;-57
2022/07/05 10:11:22;;;;;;;6.63;2.40;;;;;;;20.54;100.00;165941.84;4986863;28;20046;-57
2022/07/05 10:13:49;;;;;;;5.30;1.90;;;;;;;21.00;100.00;166062.72;4980695;28;20027;-57
2022/07/05 10:16:19;;;;;;;2.47;1.38;;;;;;;21.89;100.00;166296.34;4977693;28;20042;-57
2022/07/05 10:18:46;;;;;;;5.78;1.75;;;;;;;22.26;100.00;166394.16;4982415;28;20031;-57
2022/07/05 10:21:16;;;;;;;2.35;1.48;;;;;;;22.09;100.00;166350.69;4985440;28;20477;-57
2022/07/05 10:23:46;;;;;;;6.95;3.40;;;;;;;21.61;100.00;166224.34;4981186;28;20030;-57
2022/07/05 10:26:13;;;;;;;6.35;1.73;;;;;;;21.54;100.00;166206.69;4977350;28;20062;-57
2022/07/05 10:28:41;;;;;;;4.13;1.33;;;;;;;21.55;100.00;166209.41;4985621;28;20057;-57
2022/07/05 10:31:08;;;;;;;2.93;1.50;;;;;;;21.89;100.00;166297.75;4983476;28;20042;-57
2022/07/05 10:33:34;;;;;;;4.65;2.08;;;;;;;22.02;100.00;166331.66;4969274;28;20035;-56
2022/07/05 10:36:01;;;;;;;2.10;1.23;;;;;;;22.46;100.00;166448.56;4971660;28;20602;-57
2022/07/05 10:38:26;;;;;;;6.28;1.40;;;;;;;22.99;100.00;166587.19;4975797;28;20080;-57
2022/07/05 10:40:55;;;;;;;2.15;1.48;;;;;;;23.23;100.00;166651.13;4974988;28;20184;-57
2022/07/05 10:43:25;;;;;;;4.55;1.42;;;;;;;23.13;100.00;166625.25;4977421;28;20390;-57
2022/07/05 10:45:51;;;;;;;7.63;2.20;;;;;;;23.26;100.00;166657.94;4979871;28;20125;-57
2022/07/05 10:48:25;;;;;;;17.58;3.60;;;;;;;23.73;100.00;166783.00;4973649;28;20490;-57
2022/07/05 10:51:03;;;;;;;48.13;9.70;;;;;;;23.92;96.46;166831.97;4971780;28;20069;-57
2022/07/05 10:53:35;;;;;;;2.65;1.67;;;;;;;24.28;98.06;166927.22;4972732;28;20049;-57
2022/07/05 10:56:03;;;;;;;2.78;1.63;;;;;;;24.28;98.06;166927.22;4971530;28;20043;-57
2022/07/05 10:58:38;;;;;;;2.88;1.20;;;;;;;24.30;94.48;166931.28;4973329;28;20030;-57
2022/07/05 11:01:19;;;;;;;4.97;1.55;;;;;;;23.85;86.65;166812.94;4971475;28;20043;-58
2022/07/05 11:04:00;;;;;;;1.50;1.25;;;;;;;23.98;92.20;166848.34;4973197;28;20058;-57
2022/07/05 11:06:38;;;;;;;2.30;1.30;;;;;;;24.54;91.26;166995.19;4971887;28;20047;-57
2022/07/05 11:09:03;;;;;;;2.30;1.33;;;;;;;24.72;84.61;167042.91;4972493;28;20471;-57
2022/07/05 11:11:30;;;;;;;10.73;1.60;;;;;;;25.04;82.61;167127.22;4971799;28;20126;-57
2022/07/05 11:13:58;;;;;;;1.50;0.88;;;;;;;24.56;75.56;167000.66;4973126;28;20109;-57
2022/07/05 11:16:33;;;;;;;2.28;1.00;;;;;;;24.28;76.51;166927.22;4971324;28;20058;-57
2022/07/05 11:19:07;;;;;;;1.00;0.80;;;;;;;24.82;78.17;167068.75;4972652;28;20026;-57
2022/07/05 11:21:33;;;;;;;3.33;1.10;;;;;;;25.27;77.76;167188.47;4971621;28;20498;-57
2022/07/05 11:24:18;;;;;;;35.20;3.80;;;;;;;24.82;75.85;167068.75;4972273;28;20091;-57